• Join FlightAware (Why Join?)
  • Login
  • US Flag 
08:37AM EST


 

Airport Tracker/Info


-or-


 

Live Flight TrackerFlight Track Log ✈ CDG4645 ✈ 01-Sep-2014 ✈ ZSQD / TAO - ZSHC / HGH

Flight Track Log - Related Links

Times and Time Zones

All times are in EDT time to prevent confusion due to time zone crossing. See the CDG4645 flight status page for this flight to view local times or setup timezone preferences in your user account.

Time Position Orientation Groundspeed Altitude Reporting Facility
EDT Latitude Longitude Course Direction KTS MPH feet Rate Location/Type
02:11AM 36.2407 120.3820 164° South 162 186 1,600  Level FlightAware ADS-B
02:11AM 36.2281 120.3866 163° South 175 201 2,000 1,500 Climbing FlightAware ADS-B
02:12AM 36.1865 120.4009 164° South 234 269 3,100 1,886 Climbing FlightAware ADS-B
02:12AM 36.1595 120.4097 165° South 244 281 4,200 2,634 Climbing FlightAware ADS-B
02:12AM 36.1427 120.4155 160° South 244 281 4,900 2,382 Climbing FlightAware ADS-B
02:13AM 36.0829 120.4483 155° Southeast 275 316 6,900 2,522 Climbing FlightAware ADS-B
02:13AM 36.0633 120.4594 155° Southeast 277 319 7,800 3,097 Climbing FlightAware ADS-B
02:14AM 36.0454 120.4695 155° Southeast 280 322 8,500 3,000 Climbing FlightAware ADS-B
02:14AM 36.0271 120.4799 155° Southeast 285 328 9,300 2,710 Climbing FlightAware ADS-B
02:14AM 36.0089 120.4903 155° Southeast 291 335 9,900 2,533 Climbing FlightAware ADS-B
02:15AM 35.9713 120.5115 155° Southeast 306 352 11,200 1,900 Climbing FlightAware ADS-B
02:15AM 35.9299 120.5346 155° Southeast 343 395 11,800 2,066 Climbing FlightAware ADS-B
02:16AM 35.8864 120.5589 155° Southeast 346 398 13,300 3,000 Climbing FlightAware ADS-B
02:16AM 35.8421 120.5835 155° Southeast 351 404 14,800 2,900 Climbing FlightAware ADS-B
02:17AM 35.7974 120.6085 155° Southeast 360 414 16,200 2,644 Climbing FlightAware ADS-B
02:17AM 35.7516 120.6342 155° Southeast 370 426 17,400 2,400 Climbing FlightAware ADS-B
02:18AM 35.7034 120.6611 155° Southeast 381 438 18,600 2,164 Climbing FlightAware ADS-B
02:18AM 35.6552 120.6878 155° Southeast 388 447 19,600 1,125 Climbing FlightAware ADS-B
02:19AM 35.5986 120.7192 155° Southeast 390 449 19,800 1,031 Climbing FlightAware ADS-B
02:19AM 35.5604 120.7405 155° Southeast 393 452 20,700 210 Climbing FlightAware ADS-B
02:56AM 31.5732 122.5574 217° Southwest 403 464 27,600 169 Climbing FlightAware ADS-B (ZSSL)
02:57AM 31.5029 122.4962 217° Southwest 402 463 27,000 -904 Descending FlightAware ADS-B (ZSSL)
02:57AM 31.4585 122.4594 217° Southwest 399 459 26,500 -1,059 Descending FlightAware ADS-B (ZSSL)
02:57AM 31.4248 122.4391 204° Southwest 402 463 26,100 -1,080 Descending FlightAware ADS-B (ZSSL)
02:58AM 31.3748 122.4164 201° Southwest 401 461 25,600 -1,034 Descending FlightAware ADS-B (ZSSL)
02:58AM 31.3295 122.3962 202° Southwest 398 458 25,100 -1,015 Descending FlightAware ADS-B (ZSSL)
02:59AM 31.2618 122.3661 201° Southwest 399 459 24,500 -985 Descending FlightAware ADS-B (ZSSL)
03:00AM 31.2145 122.3450 201° Southwest 397 457 24,000 -900 Descending FlightAware ADS-B (ZSSL)
03:00AM 31.1581 122.3198 202° Southwest 393 452 23,600 -517 Descending FlightAware ADS-B (ZSSL)
03:01AM 31.1091 122.2981 201° Southwest 392 451 23,500 -610 Descending FlightAware ADS-B (ZSSL)
03:01AM 31.0581 122.2755 201° Southwest 392 451 23,000 -984 Descending FlightAware ADS-B (ZSSL)
03:02AM 31.0055 122.2523 201° Southwest 388 447 22,500 -984 Descending FlightAware ADS-B (ZSSL)
03:02AM 30.9527 122.2339 197° South 390 449 22,000 -1,017 Descending FlightAware ADS-B (ZSSL)
03:03AM 30.9027 122.2172 196° South 385 443 21,500 -900 Descending FlightAware ADS-B (ZSSL)
03:03AM 30.8498 122.1997 196° South 384 442 21,100 -800 Descending FlightAware ADS-B (ZSSL)
03:04AM 30.8029 122.1763 216° Southwest 374 430 20,700 -545 Descending FlightAware ADS-B (ZSSL)
03:04AM 30.7862 122.1574 232° Southwest 368 423 20,700 -105 Level FlightAware ADS-B (ZSSL)
03:04AM 30.7466 122.0879 238° Southwest 367 422 20,600 -455 Descending FlightAware ADS-B (ZSSL)
03:05AM 30.7254 122.0498 238° Southwest 366 421 20,200 -906 Descending FlightAware ADS-B (ZSSL)
03:05AM 30.6967 121.9986 238° Southwest 368 423 19,800 -913 Descending FlightAware ADS-B (ZSSL)
03:06AM 30.6816 121.9715 237° Southwest 365 420 19,500 -1,021 Descending FlightAware ADS-B (ZSSL)
03:06AM 30.6559 121.9259 237° Southwest 361 415 19,000 -1,021 Descending FlightAware ADS-B (ZSSL)
03:07AM 30.5961 121.8196 237° Southwest 351 404 17,900 -991 Descending FlightAware ADS-B (ZSSL)
03:08AM 30.5573 121.7505 238° Southwest 352 405 17,200 -971 Descending FlightAware ADS-B (ZSSL)
03:08AM 30.5353 121.7114 238° Southwest 350 403 16,800 -1,031 Descending FlightAware ADS-B (ZSSL)
03:09AM 30.5030 121.6547 237° Southwest 335 386 16,100 -1,052 Descending FlightAware ADS-B (ZSSL)
03:10AM 30.4533 121.5666 238° Southwest 331 381 15,100 -1,047 Descending FlightAware ADS-B (ZSSL)
03:10AM 30.4276 121.5210 237° Southwest 330 380 14,600 -1,053 Descending FlightAware ADS-B (ZSSL)
03:11AM 30.4069 121.4848 237° Southwest 324 373 14,100 -1,313 Descending FlightAware ADS-B (ZSSL)
03:12AM 30.3742 121.4277 237° Southwest 322 371 13,200 -1,193 Descending FlightAware ADS-B (ZSSL)
03:14AM 30.2732 121.2504 237° Southwest 270 311 10,700 -1,119 Descending FlightAware ADS-B (ZSSL)
03:16AM 30.2657 121.1063 267° West  Level Estimated
03:17AM 30.2613 121.0231 267° West  Level Estimated
03:18AM 30.2568 120.9400 266° West  Level Estimated
03:19AM 30.2523 120.8569 266° West  Level Estimated
03:20AM 30.2477 120.7738 266° West  Level Estimated
03:21AM 30.2431 120.6907 266° West  Level Estimated
03:22AM 30.2384 120.6075 266° West  Level Estimated
03:23AM 30.2337 120.5245 266° West  Level Estimated
03:24AM 30.2289 120.4414 266° West  Level Estimated
03:25AM 30.2283 120.4317 266° West  Level Estimated
03:26AM 30.2283 120.4317 North  Level Estimated
03:27AM 30.2283 120.4317 North  Level Estimated
03:28AM 30.2283 120.4317 North  Level Estimated
03:29AM 30.2283 120.4317 North  Level Estimated
03:30AM 30.2283 120.4317 North  Level Estimated
03:31AM 30.2283 120.4317 North  Level Estimated
03:32AM 30.2283 120.4317 North  Level Estimated
03:33AM 30.2283 120.4317 North  Level Estimated
03:34AM 30.2283 120.4317 North  Level Estimated
03:35AM 30.2283 120.4317 North  Level Estimated
03:36AM 30.2283 120.4317 North  Level Estimated
03:37AM 30.2283 120.4317 North  Level Estimated
03:38AM 30.2283 120.4317 North  Level Estimated